sensor_id;sensor_type;location;lat;lon;timestamp;P1;durP1;ratioP1;P2;durP2;ratioP2
3698;SDS011;1865;50.918;7.092;2022-08-18T00:02:00;22.17;;;14.53;;
3698;SDS011;1865;50.918;7.092;2022-08-18T00:04:32;20.53;;;14.67;;
3698;SDS011;1865;50.918;7.092;2022-08-18T00:07:06;21.70;;;15.07;;
3698;SDS011;1865;50.918;7.092;2022-08-18T00:09:35;17.50;;;13.50;;
3698;SDS011;1865;50.918;7.092;2022-08-18T00:12:04;23.73;;;14.27;;
3698;SDS011;1865;50.918;7.092;2022-08-18T00:14:33;22.77;;;15.63;;
3698;SDS011;1865;50.918;7.092;2022-08-18T00:17:00;20.10;;;15.13;;
3698;SDS011;1865;50.918;7.092;2022-08-18T00:19:26;19.13;;;13.60;;
3698;SDS011;1865;50.918;7.092;2022-08-18T00:21:52;22.03;;;14.40;;
3698;SDS011;1865;50.918;7.092;2022-08-18T00:24:17;20.37;;;14.17;;
3698;SDS011;1865;50.918;7.092;2022-08-18T00:26:43;21.20;;;15.00;;
3698;SDS011;1865;50.918;7.092;2022-08-18T00:29:08;22.70;;;15.27;;
3698;SDS011;1865;50.918;7.092;2022-08-18T00:31:34;22.63;;;13.80;;
3698;SDS011;1865;50.918;7.092;2022-08-18T00:34:01;20.43;;;13.70;;
3698;SDS011;1865;50.918;7.092;2022-08-18T00:36:27;19.07;;;13.93;;
3698;SDS011;1865;50.918;7.092;2022-08-18T00:38:52;18.33;;;13.40;;
3698;SDS011;1865;50.918;7.092;2022-08-18T00:41:19;19.50;;;14.70;;
3698;SDS011;1865;50.918;7.092;2022-08-18T00:43:50;21.50;;;15.00;;
3698;SDS011;1865;50.918;7.092;2022-08-18T00:46:18;23.20;;;15.07;;
3698;SDS011;1865;50.918;7.092;2022-08-18T00:48:46;19.70;;;14.67;;
3698;SDS011;1865;50.918;7.092;2022-08-18T00:54:11;23.43;;;15.87;;
3698;SDS011;1865;50.918;7.092;2022-08-18T00:56:52;20.07;;;14.90;;
3698;SDS011;1865;50.918;7.092;2022-08-18T00:59:26;22.40;;;16.57;;
3698;SDS011;1865;50.918;7.092;2022-08-18T01:02:04;20.77;;;15.00;;
3698;SDS011;1865;50.918;7.092;2022-08-18T01:04:37;19.83;;;14.97;;
3698;SDS011;1865;50.918;7.092;2022-08-18T01:07:09;23.07;;;15.70;;
3698;SDS011;1865;50.918;7.092;2022-08-18T01:09:39;23.23;;;15.20;;
3698;SDS011;1865;50.918;7.092;2022-08-18T01:12:05;22.10;;;15.20;;
3698;SDS011;1865;50.918;7.092;2022-08-18T01:14:33;20.83;;;14.50;;
3698;SDS011;1865;50.918;7.092;2022-08-18T01:17:01;22.50;;;14.40;;
3698;SDS011;1865;50.918;7.092;2022-08-18T01:19:45;19.07;;;13.20;;
3698;SDS011;1865;50.918;7.092;2022-08-18T01:25:13;21.30;;;14.30;;
3698;SDS011;1865;50.918;7.092;2022-08-18T01:28:03;21.17;;;14.50;;
3698;SDS011;1865;50.918;7.092;2022-08-18T01:30:30;24.00;;;14.57;;
3698;SDS011;1865;50.918;7.092;2022-08-18T01:32:57;24.20;;;16.17;;
3698;SDS011;1865;50.918;7.092;2022-08-18T01:35:24;20.90;;;14.43;;
3698;SDS011;1865;50.918;7.092;2022-08-18T01:37:51;25.17;;;15.57;;
3698;SDS011;1865;50.918;7.092;2022-08-18T01:40:19;20.50;;;14.10;;
3698;SDS011;1865;50.918;7.092;2022-08-18T01:42:47;26.57;;;15.90;;
3698;SDS011;1865;50.918;7.092;2022-08-18T01:45:13;23.80;;;16.93;;
3698;SDS011;1865;50.918;7.092;2022-08-18T01:47:41;23.33;;;15.97;;
3698;SDS011;1865;50.918;7.092;2022-08-18T01:50:09;25.67;;;15.70;;
3698;SDS011;1865;50.918;7.092;2022-08-18T01:52:37;20.07;;;15.40;;
3698;SDS011;1865;50.918;7.092;2022-08-18T01:55:03;23.10;;;16.50;;
3698;SDS011;1865;50.918;7.092;2022-08-18T01:57:31;21.53;;;15.20;;
3698;SDS011;1865;50.918;7.092;2022-08-18T01:59:57;23.67;;;16.80;;
3698;SDS011;1865;50.918;7.092;2022-08-18T02:02:25;22.30;;;16.60;;
3698;SDS011;1865;50.918;7.092;2022-08-18T02:04:59;23.10;;;17.00;;
3698;SDS011;1865;50.918;7.092;2022-08-18T02:07:34;27.07;;;17.43;;
3698;SDS011;1865;50.918;7.092;2022-08-18T02:10:03;24.87;;;16.63;;
3698;SDS011;1865;50.918;7.092;2022-08-18T02:12:32;24.20;;;16.13;;
3698;SDS011;1865;50.918;7.092;2022-08-18T02:14:59;22.97;;;15.97;;
3698;SDS011;1865;50.918;7.092;2022-08-18T02:17:24;29.80;;;17.43;;
3698;SDS011;1865;50.918;7.092;2022-08-18T02:19:50;27.23;;;16.70;;
3698;SDS011;1865;50.918;7.092;2022-08-18T02:22:17;25.13;;;16.60;;
3698;SDS011;1865;50.918;7.092;2022-08-18T02:24:46;27.20;;;17.67;;
3698;SDS011;1865;50.918;7.092;2022-08-18T02:27:13;22.73;;;16.43;;
3698;SDS011;1865;50.918;7.092;2022-08-18T02:29:40;22.50;;;16.33;;
3698;SDS011;1865;50.918;7.092;2022-08-18T02:32:08;22.27;;;15.90;;
3698;SDS011;1865;50.918;7.092;2022-08-18T02:34:35;23.70;;;15.60;;
3698;SDS011;1865;50.918;7.092;2022-08-18T02:37:09;23.90;;;16.17;;
3698;SDS011;1865;50.918;7.092;2022-08-18T02:39:36;22.93;;;16.37;;
3698;SDS011;1865;50.918;7.092;2022-08-18T02:42:05;20.70;;;14.37;;
3698;SDS011;1865;50.918;7.092;2022-08-18T02:44:32;21.97;;;15.23;;
3698;SDS011;1865;50.918;7.092;2022-08-18T02:46:58;23.00;;;16.63;;
3698;SDS011;1865;50.918;7.092;2022-08-18T02:49:24;24.53;;;15.33;;
3698;SDS011;1865;50.918;7.092;2022-08-18T02:51:50;21.30;;;14.57;;
3698;SDS011;1865;50.918;7.092;2022-08-18T02:54:18;22.93;;;16.53;;
3698;SDS011;1865;50.918;7.092;2022-08-18T02:56:47;25.07;;;17.10;;
3698;SDS011;1865;50.918;7.092;2022-08-18T02:59:18;25.13;;;15.10;;
3698;SDS011;1865;50.918;7.092;2022-08-18T03:01:53;21.93;;;16.13;;
3698;SDS011;1865;50.918;7.092;2022-08-18T03:04:26;20.00;;;14.63;;
3698;SDS011;1865;50.918;7.092;2022-08-18T03:06:54;20.47;;;14.43;;
3698;SDS011;1865;50.918;7.092;2022-08-18T03:09:21;22.73;;;16.20;;
3698;SDS011;1865;50.918;7.092;2022-08-18T03:11:48;20.90;;;15.00;;
3698;SDS011;1865;50.918;7.092;2022-08-18T03:14:14;20.70;;;15.13;;
3698;SDS011;1865;50.918;7.092;2022-08-18T03:16:42;21.57;;;14.87;;
3698;SDS011;1865;50.918;7.092;2022-08-18T03:19:09;19.67;;;14.60;;
3698;SDS011;1865;50.918;7.092;2022-08-18T03:21:40;23.60;;;13.60;;
3698;SDS011;1865;50.918;7.092;2022-08-18T03:24:06;21.30;;;15.20;;
3698;SDS011;1865;50.918;7.092;2022-08-18T03:26:32;20.97;;;15.03;;
3698;SDS011;1865;50.918;7.092;2022-08-18T03:29:03;25.70;;;15.70;;
3698;SDS011;1865;50.918;7.092;2022-08-18T03:31:30;24.40;;;17.27;;
3698;SDS011;1865;50.918;7.092;2022-08-18T03:33:56;25.20;;;18.23;;
3698;SDS011;1865;50.918;7.092;2022-08-18T03:36:24;23.07;;;16.57;;
3698;SDS011;1865;50.918;7.092;2022-08-18T03:38:52;23.30;;;16.57;;
3698;SDS011;1865;50.918;7.092;2022-08-18T03:41:19;25.47;;;17.60;;
3698;SDS011;1865;50.918;7.092;2022-08-18T03:43:49;24.90;;;17.60;;
3698;SDS011;1865;50.918;7.092;2022-08-18T03:46:17;28.70;;;18.13;;
3698;SDS011;1865;50.918;7.092;2022-08-18T03:48:44;23.80;;;17.57;;
3698;SDS011;1865;50.918;7.092;2022-08-18T03:51:19;27.37;;;18.87;;
3698;SDS011;1865;50.918;7.092;2022-08-18T03:53:49;26.67;;;19.63;;
3698;SDS011;1865;50.918;7.092;2022-08-18T03:56:22;27.70;;;20.30;;
3698;SDS011;1865;50.918;7.092;2022-08-18T03:58:56;31.93;;;21.20;;
3698;SDS011;1865;50.918;7.092;2022-08-18T04:01:24;33.33;;;23.00;;
3698;SDS011;1865;50.918;7.092;2022-08-18T04:03:58;36.10;;;23.50;;
3698;SDS011;1865;50.918;7.092;2022-08-18T04:06:27;33.97;;;22.53;;
3698;SDS011;1865;50.918;7.092;2022-08-18T04:08:59;30.00;;;22.40;;
3698;SDS011;1865;50.918;7.092;2022-08-18T04:11:29;30.10;;;21.97;;
3698;SDS011;1865;50.918;7.092;2022-08-18T04:13:57;30.33;;;22.30;;
3698;SDS011;1865;50.918;7.092;2022-08-18T04:16:26;30.87;;;22.57;;
3698;SDS011;1865;50.918;7.092;2022-08-18T04:18:56;35.67;;;22.50;;
3698;SDS011;1865;50.918;7.092;2022-08-18T04:21:29;32.73;;;22.87;;
3698;SDS011;1865;50.918;7.092;2022-08-18T04:23:56;29.63;;;20.83;;
3698;SDS011;1865;50.918;7.092;2022-08-18T04:26:29;28.97;;;21.20;;
3698;SDS011;1865;50.918;7.092;2022-08-18T04:28:56;27.53;;;20.70;;
3698;SDS011;1865;50.918;7.092;2022-08-18T04:31:23;27.90;;;19.93;;
3698;SDS011;1865;50.918;7.092;2022-08-18T04:33:50;30.63;;;20.83;;
3698;SDS011;1865;50.918;7.092;2022-08-18T04:36:16;28.80;;;21.50;;
3698;SDS011;1865;50.918;7.092;2022-08-18T04:38:42;31.47;;;21.07;;
3698;SDS011;1865;50.918;7.092;2022-08-18T04:41:10;33.77;;;22.20;;
3698;SDS011;1865;50.918;7.092;2022-08-18T04:43:37;31.47;;;22.37;;
3698;SDS011;1865;50.918;7.092;2022-08-18T04:46:03;29.17;;;21.90;;
3698;SDS011;1865;50.918;7.092;2022-08-18T04:48:36;31.00;;;22.20;;
3698;SDS011;1865;50.918;7.092;2022-08-18T04:51:05;30.27;;;21.47;;
3698;SDS011;1865;50.918;7.092;2022-08-18T04:53:32;41.23;;;23.70;;
3698;SDS011;1865;50.918;7.092;2022-08-18T04:58:59;29.97;;;22.07;;
3698;SDS011;1865;50.918;7.092;2022-08-18T05:01:33;34.07;;;23.83;;
3698;SDS011;1865;50.918;7.092;2022-08-18T05:04:00;31.37;;;23.30;;
3698;SDS011;1865;50.918;7.092;2022-08-18T05:06:28;32.87;;;24.03;;
3698;SDS011;1865;50.918;7.092;2022-08-18T05:08:55;41.63;;;23.30;;
3698;SDS011;1865;50.918;7.092;2022-08-18T05:11:23;34.40;;;24.20;;
3698;SDS011;1865;50.918;7.092;2022-08-18T05:13:54;33.27;;;23.73;;
3698;SDS011;1865;50.918;7.092;2022-08-18T05:16:22;35.20;;;24.77;;
3698;SDS011;1865;50.918;7.092;2022-08-18T05:18:50;39.23;;;25.93;;
3698;SDS011;1865;50.918;7.092;2022-08-18T05:21:17;34.07;;;24.50;;
3698;SDS011;1865;50.918;7.092;2022-08-18T05:23:46;35.40;;;25.60;;
3698;SDS011;1865;50.918;7.092;2022-08-18T05:26:13;41.67;;;25.37;;
3698;SDS011;1865;50.918;7.092;2022-08-18T05:28:40;43.63;;;27.47;;
3698;SDS011;1865;50.918;7.092;2022-08-18T05:31:09;41.60;;;25.07;;
3698;SDS011;1865;50.918;7.092;2022-08-18T05:33:36;43.60;;;26.40;;
3698;SDS011;1865;50.918;7.092;2022-08-18T05:36:04;38.43;;;26.27;;
3698;SDS011;1865;50.918;7.092;2022-08-18T05:39:05;38.87;;;24.37;;
3698;SDS011;1865;50.918;7.092;2022-08-18T05:41:47;97.87;;;44.67;;
3698;SDS011;1865;50.918;7.092;2022-08-18T05:44:31;62.30;;;33.77;;
3698;SDS011;1865;50.918;7.092;2022-08-18T05:47:11;106.67;;;45.27;;
3698;SDS011;1865;50.918;7.092;2022-08-18T05:49:55;106.97;;;45.70;;
3698;SDS011;1865;50.918;7.092;2022-08-18T05:52:32;103.63;;;46.40;;
3698;SDS011;1865;50.918;7.092;2022-08-18T05:55:11;114.63;;;46.17;;
3698;SDS011;1865;50.918;7.092;2022-08-18T05:58:00;112.27;;;49.43;;
3698;SDS011;1865;50.918;7.092;2022-08-18T06:00:30;109.47;;;47.97;;
3698;SDS011;1865;50.918;7.092;2022-08-18T06:02:57;108.03;;;46.50;;
3698;SDS011;1865;50.918;7.092;2022-08-18T06:05:40;113.93;;;48.47;;
3698;SDS011;1865;50.918;7.092;2022-08-18T06:08:16;96.73;;;42.90;;
3698;SDS011;1865;50.918;7.092;2022-08-18T06:10:49;107.57;;;47.40;;
3698;SDS011;1865;50.918;7.092;2022-08-18T06:13:19;95.47;;;43.27;;
3698;SDS011;1865;50.918;7.092;2022-08-18T06:15:58;96.00;;;41.97;;
3698;SDS011;1865;50.918;7.092;2022-08-18T06:18:38;90.43;;;41.80;;
3698;SDS011;1865;50.918;7.092;2022-08-18T06:21:37;84.90;;;41.33;;
3698;SDS011;1865;50.918;7.092;2022-08-18T06:26:51;89.43;;;42.43;;
3698;SDS011;1865;50.918;7.092;2022-08-18T06:30:03;88.37;;;37.30;;
3698;SDS011;1865;50.918;7.092;2022-08-18T06:35:47;78.20;;;37.97;;
3698;SDS011;1865;50.918;7.092;2022-08-18T06:38:34;81.50;;;39.73;;
3698;SDS011;1865;50.918;7.092;2022-08-18T06:41:35;83.07;;;41.73;;
3698;SDS011;1865;50.918;7.092;2022-08-18T06:44:09;94.80;;;42.70;;
3698;SDS011;1865;50.918;7.092;2022-08-18T06:49:32;94.87;;;41.83;;
3698;SDS011;1865;50.918;7.092;2022-08-18T06:55:02;101.80;;;43.07;;
3698;SDS011;1865;50.918;7.092;2022-08-18T07:00:43;92.50;;;42.80;;
3698;SDS011;1865;50.918;7.092;2022-08-18T07:03:20;105.03;;;45.87;;
3698;SDS011;1865;50.918;7.092;2022-08-18T07:06:10;96.37;;;44.80;;
3698;SDS011;1865;50.918;7.092;2022-08-18T07:08:46;96.87;;;44.70;;
3698;SDS011;1865;50.918;7.092;2022-08-18T07:11:21;105.63;;;45.27;;
3698;SDS011;1865;50.918;7.092;2022-08-18T07:13:54;90.13;;;42.70;;
3698;SDS011;1865;50.918;7.092;2022-08-18T07:16:23;90.93;;;43.77;;
3698;SDS011;1865;50.918;7.092;2022-08-18T07:18:49;93.47;;;42.20;;
3698;SDS011;1865;50.918;7.092;2022-08-18T07:21:26;102.90;;;47.20;;
3698;SDS011;1865;50.918;7.092;2022-08-18T07:27:04;110.03;;;45.17;;
3698;SDS011;1865;50.918;7.092;2022-08-18T07:29:39;105.87;;;46.73;;
3698;SDS011;1865;50.918;7.092;2022-08-18T07:32:25;96.73;;;44.10;;
3698;SDS011;1865;50.918;7.092;2022-08-18T07:34:58;104.97;;;45.10;;
3698;SDS011;1865;50.918;7.092;2022-08-18T07:37:34;99.70;;;47.50;;
3698;SDS011;1865;50.918;7.092;2022-08-18T07:40:24;102.17;;;44.43;;
3698;SDS011;1865;50.918;7.092;2022-08-18T07:43:04;95.50;;;43.80;;
3698;SDS011;1865;50.918;7.092;2022-08-18T07:45:40;102.10;;;45.37;;
3698;SDS011;1865;50.918;7.092;2022-08-18T07:48:17;100.00;;;42.17;;
3698;SDS011;1865;50.918;7.092;2022-08-18T07:51:04;105.47;;;44.17;;
3698;SDS011;1865;50.918;7.092;2022-08-18T07:53:50;127.47;;;46.73;;
3698;SDS011;1865;50.918;7.092;2022-08-18T07:56:31;121.20;;;49.50;;
3698;SDS011;1865;50.918;7.092;2022-08-18T07:59:28;125.93;;;50.37;;
3698;SDS011;1865;50.918;7.092;2022-08-18T08:02:18;133.70;;;53.50;;
3698;SDS011;1865;50.918;7.092;2022-08-18T08:15:22;116.33;;;47.13;;
3698;SDS011;1865;50.918;7.092;2022-08-18T08:17:57;124.03;;;51.20;;
3698;SDS011;1865;50.918;7.092;2022-08-18T08:20:53;117.70;;;47.70;;
3698;SDS011;1865;50.918;7.092;2022-08-18T08:23:40;113.17;;;49.87;;
3698;SDS011;1865;50.918;7.092;2022-08-18T08:26:34;111.57;;;47.67;;
3698;SDS011;1865;50.918;7.092;2022-08-18T08:29:32;103.27;;;47.90;;
3698;SDS011;1865;50.918;7.092;2022-08-18T08:32:46;91.37;;;44.53;;
3698;SDS011;1865;50.918;7.092;2022-08-18T08:35:31;90.30;;;42.27;;
3698;SDS011;1865;50.918;7.092;2022-08-18T08:38:10;83.90;;;40.63;;
3698;SDS011;1865;50.918;7.092;2022-08-18T08:43:42;81.67;;;41.27;;
3698;SDS011;1865;50.918;7.092;2022-08-18T08:46:18;80.97;;;40.20;;
3698;SDS011;1865;50.918;7.092;2022-08-18T08:48:50;75.27;;;39.30;;
3698;SDS011;1865;50.918;7.092;2022-08-18T08:51:46;79.97;;;36.80;;
3698;SDS011;1865;50.918;7.092;2022-08-18T08:54:22;68.67;;;38.50;;
3698;SDS011;1865;50.918;7.092;2022-08-18T08:56:57;68.77;;;35.40;;
3698;SDS011;1865;50.918;7.092;2022-08-18T08:59:28;61.40;;;34.90;;
3698;SDS011;1865;50.918;7.092;2022-08-18T09:01:57;66.53;;;36.17;;
3698;SDS011;1865;50.918;7.092;2022-08-18T09:04:48;62.70;;;35.80;;
3698;SDS011;1865;50.918;7.092;2022-08-18T09:13:25;53.87;;;32.83;;
3698;SDS011;1865;50.918;7.092;2022-08-18T09:18:59;57.67;;;32.83;;
3698;SDS011;1865;50.918;7.092;2022-08-18T09:21:41;65.57;;;35.23;;
3698;SDS011;1865;50.918;7.092;2022-08-18T09:24:24;51.90;;;30.60;;
3698;SDS011;1865;50.918;7.092;2022-08-18T09:33:16;49.53;;;30.97;;
3698;SDS011;1865;50.918;7.092;2022-08-18T09:38:30;51.77;;;28.90;;
3698;SDS011;1865;50.918;7.092;2022-08-18T09:41:18;58.37;;;33.57;;
3698;SDS011;1865;50.918;7.092;2022-08-18T09:44:00;51.67;;;32.50;;
3698;SDS011;1865;50.918;7.092;2022-08-18T09:51:55;57.90;;;36.60;;
3698;SDS011;1865;50.918;7.092;2022-08-18T09:54:27;50.57;;;30.40;;
3698;SDS011;1865;50.918;7.092;2022-08-18T09:59:53;55.90;;;35.17;;
3698;SDS011;1865;50.918;7.092;2022-08-18T10:18:34;47.27;;;28.90;;
3698;SDS011;1865;50.918;7.092;2022-08-18T10:21:13;42.90;;;27.90;;
3698;SDS011;1865;50.918;7.092;2022-08-18T10:34:41;55.23;;;32.30;;
3698;SDS011;1865;50.918;7.092;2022-08-18T10:37:22;49.43;;;29.80;;
3698;SDS011;1865;50.918;7.092;2022-08-18T10:43:08;51.73;;;30.87;;
3698;SDS011;1865;50.918;7.092;2022-08-18T10:45:43;48.87;;;31.20;;
3698;SDS011;1865;50.918;7.092;2022-08-18T10:48:24;47.10;;;28.40;;
3698;SDS011;1865;50.918;7.092;2022-08-18T10:51:15;48.13;;;30.33;;
3698;SDS011;1865;50.918;7.092;2022-08-18T10:53:57;54.67;;;32.77;;
3698;SDS011;1865;50.918;7.092;2022-08-18T10:59:47;45.73;;;28.73;;
3698;SDS011;1865;50.918;7.092;2022-08-18T11:02:41;39.93;;;26.67;;
3698;SDS011;1865;50.918;7.092;2022-08-18T11:05:33;43.70;;;27.37;;
3698;SDS011;1865;50.918;7.092;2022-08-18T11:08:00;44.17;;;28.80;;
3698;SDS011;1865;50.918;7.092;2022-08-18T11:10:42;46.33;;;29.97;;
3698;SDS011;1865;50.918;7.092;2022-08-18T11:13:18;42.13;;;28.10;;
3698;SDS011;1865;50.918;7.092;2022-08-18T11:18:46;41.27;;;26.17;;
3698;SDS011;1865;50.918;7.092;2022-08-18T11:24:06;39.53;;;24.20;;
3698;SDS011;1865;50.918;7.092;2022-08-18T11:31:54;35.23;;;23.50;;
3698;SDS011;1865;50.918;7.092;2022-08-18T11:34:26;34.33;;;23.17;;
3698;SDS011;1865;50.918;7.092;2022-08-18T11:36:56;39.77;;;26.50;;
3698;SDS011;1865;50.918;7.092;2022-08-18T11:39:26;35.30;;;24.13;;
3698;SDS011;1865;50.918;7.092;2022-08-18T11:41:52;36.03;;;25.27;;
3698;SDS011;1865;50.918;7.092;2022-08-18T11:44:20;34.40;;;22.23;;
3698;SDS011;1865;50.918;7.092;2022-08-18T11:46:48;39.97;;;24.27;;
3698;SDS011;1865;50.918;7.092;2022-08-18T11:49:32;36.57;;;22.60;;
3698;SDS011;1865;50.918;7.092;2022-08-18T11:54:46;36.00;;;22.00;;
3698;SDS011;1865;50.918;7.092;2022-08-18T12:03:10;35.43;;;21.97;;
3698;SDS011;1865;50.918;7.092;2022-08-18T12:06:07;36.10;;;21.20;;
3698;SDS011;1865;50.918;7.092;2022-08-18T12:08:59;26.43;;;18.00;;
3698;SDS011;1865;50.918;7.092;2022-08-18T12:11:34;197.50;;;25.90;;
3698;SDS011;1865;50.918;7.092;2022-08-18T12:14:06;28.20;;;19.20;;
3698;SDS011;1865;50.918;7.092;2022-08-18T12:19:05;32.90;;;21.40;;
3698;SDS011;1865;50.918;7.092;2022-08-18T12:21:36;29.67;;;17.50;;
3698;SDS011;1865;50.918;7.092;2022-08-18T12:24:03;26.90;;;17.67;;
3698;SDS011;1865;50.918;7.092;2022-08-18T12:26:29;33.43;;;18.00;;
3698;SDS011;1865;50.918;7.092;2022-08-18T12:28:55;30.43;;;18.90;;
3698;SDS011;1865;50.918;7.092;2022-08-18T12:31:20;27.10;;;19.03;;
3698;SDS011;1865;50.918;7.092;2022-08-18T12:33:46;26.43;;;17.73;;
3698;SDS011;1865;50.918;7.092;2022-08-18T12:36:12;28.30;;;17.17;;
3698;SDS011;1865;50.918;7.092;2022-08-18T12:38:37;26.33;;;15.63;;
3698;SDS011;1865;50.918;7.092;2022-08-18T12:41:05;23.20;;;14.47;;
3698;SDS011;1865;50.918;7.092;2022-08-18T12:43:35;29.47;;;19.10;;
3698;SDS011;1865;50.918;7.092;2022-08-18T12:46:03;26.37;;;15.63;;
3698;SDS011;1865;50.918;7.092;2022-08-18T12:48:30;29.30;;;18.97;;
3698;SDS011;1865;50.918;7.092;2022-08-18T12:50:56;26.50;;;16.80;;
3698;SDS011;1865;50.918;7.092;2022-08-18T12:53:23;27.10;;;16.93;;
3698;SDS011;1865;50.918;7.092;2022-08-18T12:55:50;33.07;;;18.20;;
3698;SDS011;1865;50.918;7.092;2022-08-18T12:58:15;20.07;;;12.17;;
3698;SDS011;1865;50.918;7.092;2022-08-18T13:00:41;24.47;;;15.97;;
3698;SDS011;1865;50.918;7.092;2022-08-18T13:03:07;27.00;;;17.20;;
3698;SDS011;1865;50.918;7.092;2022-08-18T13:05:33;25.13;;;15.17;;
3698;SDS011;1865;50.918;7.092;2022-08-18T13:08:00;25.90;;;15.97;;
3698;SDS011;1865;50.918;7.092;2022-08-18T13:10:29;31.70;;;16.87;;
3698;SDS011;1865;50.918;7.092;2022-08-18T13:12:56;24.90;;;14.20;;
3698;SDS011;1865;50.918;7.092;2022-08-18T13:15:22;27.03;;;12.90;;
3698;SDS011;1865;50.918;7.092;2022-08-18T13:17:48;25.33;;;15.27;;
3698;SDS011;1865;50.918;7.092;2022-08-18T13:20:15;21.43;;;14.67;;
3698;SDS011;1865;50.918;7.092;2022-08-18T13:22:41;22.77;;;13.57;;
3698;SDS011;1865;50.918;7.092;2022-08-18T13:25:11;28.10;;;16.20;;
3698;SDS011;1865;50.918;7.092;2022-08-18T13:27:40;31.73;;;17.47;;
3698;SDS011;1865;50.918;7.092;2022-08-18T13:30:07;21.27;;;13.60;;
3698;SDS011;1865;50.918;7.092;2022-08-18T13:32:39;28.77;;;17.30;;
3698;SDS011;1865;50.918;7.092;2022-08-18T13:35:05;30.30;;;15.57;;
3698;SDS011;1865;50.918;7.092;2022-08-18T13:37:33;30.43;;;20.20;;
3698;SDS011;1865;50.918;7.092;2022-08-18T13:40:00;23.83;;;18.03;;
3698;SDS011;1865;50.918;7.092;2022-08-18T13:42:28;20.73;;;14.03;;
3698;SDS011;1865;50.918;7.092;2022-08-18T13:44:57;23.53;;;15.60;;
3698;SDS011;1865;50.918;7.092;2022-08-18T13:47:24;31.37;;;17.30;;
3698;SDS011;1865;50.918;7.092;2022-08-18T13:49:53;35.90;;;20.60;;
3698;SDS011;1865;50.918;7.092;2022-08-18T13:52:19;28.33;;;14.43;;
3698;SDS011;1865;50.918;7.092;2022-08-18T13:54:44;24.83;;;15.83;;
3698;SDS011;1865;50.918;7.092;2022-08-18T13:57:10;29.47;;;19.90;;
3698;SDS011;1865;50.918;7.092;2022-08-18T13:59:36;32.23;;;13.83;;
3698;SDS011;1865;50.918;7.092;2022-08-18T14:02:05;23.97;;;15.83;;
3698;SDS011;1865;50.918;7.092;2022-08-18T14:04:33;24.07;;;15.50;;
3698;SDS011;1865;50.918;7.092;2022-08-18T14:07:00;21.80;;;13.40;;
3698;SDS011;1865;50.918;7.092;2022-08-18T14:09:26;23.97;;;15.20;;
3698;SDS011;1865;50.918;7.092;2022-08-18T14:11:53;23.80;;;14.37;;
3698;SDS011;1865;50.918;7.092;2022-08-18T14:14:20;25.40;;;15.00;;
3698;SDS011;1865;50.918;7.092;2022-08-18T14:16:46;24.80;;;15.77;;
3698;SDS011;1865;50.918;7.092;2022-08-18T14:19:11;21.80;;;13.93;;
3698;SDS011;1865;50.918;7.092;2022-08-18T14:21:56;26.93;;;15.37;;
3698;SDS011;1865;50.918;7.092;2022-08-18T14:24:40;26.57;;;15.10;;
3698;SDS011;1865;50.918;7.092;2022-08-18T14:27:33;20.53;;;12.90;;
3698;SDS011;1865;50.918;7.092;2022-08-18T14:30:02;19.70;;;11.13;;
3698;SDS011;1865;50.918;7.092;2022-08-18T14:32:30;21.00;;;11.13;;
3698;SDS011;1865;50.918;7.092;2022-08-18T14:34:57;23.00;;;13.13;;
3698;SDS011;1865;50.918;7.092;2022-08-18T14:37:25;26.00;;;13.60;;
3698;SDS011;1865;50.918;7.092;2022-08-18T14:39:52;18.20;;;9.60;;
3698;SDS011;1865;50.918;7.092;2022-08-18T14:42:17;14.93;;;8.77;;
3698;SDS011;1865;50.918;7.092;2022-08-18T14:44:45;33.57;;;10.10;;
3698;SDS011;1865;50.918;7.092;2022-08-18T14:47:12;22.23;;;11.00;;
3698;SDS011;1865;50.918;7.092;2022-08-18T14:49:39;20.07;;;10.13;;
3698;SDS011;1865;50.918;7.092;2022-08-18T14:52:07;19.63;;;10.23;;
3698;SDS011;1865;50.918;7.092;2022-08-18T14:54:35;17.17;;;10.30;;
3698;SDS011;1865;50.918;7.092;2022-08-18T14:57:01;15.17;;;9.60;;
3698;SDS011;1865;50.918;7.092;2022-08-18T14:59:27;18.07;;;10.23;;
3698;SDS011;1865;50.918;7.092;2022-08-18T15:01:54;16.63;;;10.03;;
3698;SDS011;1865;50.918;7.092;2022-08-18T15:04:21;17.87;;;10.37;;
3698;SDS011;1865;50.918;7.092;2022-08-18T15:06:47;21.80;;;11.63;;
3698;SDS011;1865;50.918;7.092;2022-08-18T15:09:14;17.53;;;10.43;;
3698;SDS011;1865;50.918;7.092;2022-08-18T15:11:39;14.40;;;9.40;;
3698;SDS011;1865;50.918;7.092;2022-08-18T15:14:05;15.17;;;8.60;;
3698;SDS011;1865;50.918;7.092;2022-08-18T15:16:32;15.80;;;8.57;;
3698;SDS011;1865;50.918;7.092;2022-08-18T15:18:59;20.53;;;11.80;;
3698;SDS011;1865;50.918;7.092;2022-08-18T15:21:25;20.80;;;10.73;;
3698;SDS011;1865;50.918;7.092;2022-08-18T15:24:10;17.60;;;8.20;;
3698;SDS011;1865;50.918;7.092;2022-08-18T15:26:55;17.00;;;8.73;;
3698;SDS011;1865;50.918;7.092;2022-08-18T15:29:27;25.73;;;9.50;;
3698;SDS011;1865;50.918;7.092;2022-08-18T15:31:52;13.83;;;8.30;;
3698;SDS011;1865;50.918;7.092;2022-08-18T15:34:18;15.30;;;8.50;;
3698;SDS011;1865;50.918;7.092;2022-08-18T15:36:44;12.90;;;8.10;;
3698;SDS011;1865;50.918;7.092;2022-08-18T15:39:11;18.80;;;9.50;;
3698;SDS011;1865;50.918;7.092;2022-08-18T15:41:41;20.83;;;9.00;;
3698;SDS011;1865;50.918;7.092;2022-08-18T15:44:14;13.50;;;7.20;;
3698;SDS011;1865;50.918;7.092;2022-08-18T15:46:42;17.40;;;9.70;;
3698;SDS011;1865;50.918;7.092;2022-08-18T15:49:08;22.33;;;11.07;;
3698;SDS011;1865;50.918;7.092;2022-08-18T15:51:35;17.33;;;9.83;;
3698;SDS011;1865;50.918;7.092;2022-08-18T15:54:02;19.17;;;10.73;;
3698;SDS011;1865;50.918;7.092;2022-08-18T15:56:28;18.97;;;10.57;;
3698;SDS011;1865;50.918;7.092;2022-08-18T15:58:55;19.50;;;11.30;;
3698;SDS011;1865;50.918;7.092;2022-08-18T16:01:22;17.53;;;11.00;;
3698;SDS011;1865;50.918;7.092;2022-08-18T16:03:50;16.93;;;11.27;;
3698;SDS011;1865;50.918;7.092;2022-08-18T16:06:19;22.80;;;12.40;;
3698;SDS011;1865;50.918;7.092;2022-08-18T16:08:48;17.13;;;10.30;;
3698;SDS011;1865;50.918;7.092;2022-08-18T16:11:16;17.37;;;11.50;;
3698;SDS011;1865;50.918;7.092;2022-08-18T16:13:48;19.90;;;11.30;;
3698;SDS011;1865;50.918;7.092;2022-08-18T16:16:15;19.10;;;11.63;;
3698;SDS011;1865;50.918;7.092;2022-08-18T16:18:46;18.17;;;11.60;;
3698;SDS011;1865;50.918;7.092;2022-08-18T16:21:13;21.70;;;11.50;;
3698;SDS011;1865;50.918;7.092;2022-08-18T16:23:41;23.67;;;10.17;;
3698;SDS011;1865;50.918;7.092;2022-08-18T16:26:09;17.90;;;9.93;;
3698;SDS011;1865;50.918;7.092;2022-08-18T16:28:40;14.57;;;9.50;;
3698;SDS011;1865;50.918;7.092;2022-08-18T16:31:12;19.20;;;9.53;;
3698;SDS011;1865;50.918;7.092;2022-08-18T16:33:43;19.60;;;10.07;;
3698;SDS011;1865;50.918;7.092;2022-08-18T16:36:10;16.70;;;9.73;;
3698;SDS011;1865;50.918;7.092;2022-08-18T16:38:39;20.30;;;9.97;;
3698;SDS011;1865;50.918;7.092;2022-08-18T16:41:11;38.13;;;10.03;;
3698;SDS011;1865;50.918;7.092;2022-08-18T16:43:39;19.83;;;9.23;;
3698;SDS011;1865;50.918;7.092;2022-08-18T16:46:08;24.23;;;11.77;;
3698;SDS011;1865;50.918;7.092;2022-08-18T16:48:35;18.73;;;11.10;;
3698;SDS011;1865;50.918;7.092;2022-08-18T16:51:01;17.53;;;10.47;;
3698;SDS011;1865;50.918;7.092;2022-08-18T16:53:27;15.57;;;9.73;;
3698;SDS011;1865;50.918;7.092;2022-08-18T16:55:52;20.23;;;10.23;;
3698;SDS011;1865;50.918;7.092;2022-08-18T16:58:18;18.93;;;11.10;;
3698;SDS011;1865;50.918;7.092;2022-08-18T17:01:03;17.37;;;10.00;;
3698;SDS011;1865;50.918;7.092;2022-08-18T17:03:48;20.50;;;11.10;;
3698;SDS011;1865;50.918;7.092;2022-08-18T17:06:33;17.30;;;10.07;;
3698;SDS011;1865;50.918;7.092;2022-08-18T17:09:00;16.40;;;10.03;;
3698;SDS011;1865;50.918;7.092;2022-08-18T17:11:27;20.37;;;11.13;;
3698;SDS011;1865;50.918;7.092;2022-08-18T17:13:54;15.00;;;9.90;;
3698;SDS011;1865;50.918;7.092;2022-08-18T17:16:22;16.63;;;9.90;;
3698;SDS011;1865;50.918;7.092;2022-08-18T17:18:49;20.87;;;11.57;;